Hauptseite
METAR-TAF:

METAR-TAF

Flughäfen :

Flughafen Dresden

Dresden, Deutschland

Breite: 51-08N, Länge: 013-45E, Höhe: 230 m

Beobachtung

Neuester Wetterbericht von vor 23 Minuten, um 21:20 UTC
Wind 7 kt aus Süd/Südost
Temperatur 12°C
Luftfeuchtigkeit 32%
Luftdruck 1022 hPa
Sichtweite 10 km oder mehr
keine Wolken unter 1500 m und keine Kumulonimbus oder Gewitterwolken

METAR: EDDC 082120Z 15007KT CAVOK 12/M04 Q1022

Zeit: 23:43 (21:43 UTC)

Prognose

Neuester Wetterbericht von vor 4 Stunden und 43 Minuten, um 17:00 UTC
Gültige Prognose vom 08 um 18 UTC bis 09 um 18 UTC
Wind 6 kt aus Süd
Sichtweite 10 km oder mehr
keine Wolken unter 1500 m und keine Kumulonimbus oder Gewitterwolken
Übergehend zu
vom 09 um 08 UTC bis 09 um 11 UTC
Wind 8 kt aus Nordwest

TAF: EDDC 081700Z 0818/0918 18006KT CAVOK BECMG 0908/0911 31008KT

Wetterbeobachtungen und Prognosen von mehr als 4000 Flughäfen (METAR und TAF Bericht).

Die verfügbaren Stationen werden durch gelbe und rote Markierungen auf der Karte dargestellt.

Führen Sie die Maus auf sie, um den Namen der Station zu sehen.

Darauf klicken, um die Beobachtung von Wetterbeobachtungen und Prognosen zu sehen.

Um die Karte zu ändern : klicken Sie auf den grünen Tasten mit einem schwarzen Kreuz Zum Vergrößern, auf den grünen Button mit einem Gedankenstrich zu verkleinern, oder auf die grünen Pfeile für benachbarte Karten.


METAR-TAF: